Time;durP1;ratioP1;P1;durP2;ratioP2;P2;SDS_P1;SDS_P2;PMS_P1;PMS_P2;Temp;Humidity;BMP_temperature;BMP_pressure;BME280_temperature;BME280_humidity;BME280_pressure;Samples;Min_cycle;Max_cycle;Signal;HPM_P1;HPM_P2
2023/02/18 00:01:29;;;;;;;7.00;2.40;;;;;;;6.89;69.06;99275.48;131362;1254;107559;-78
2023/02/18 00:04:35;;;;;;;10.70;4.20;;;;;;;6.84;69.10;99273.55;131240;1268;107258;-79
2023/02/18 00:07:41;;;;;;;11.30;3.60;;;;;;;6.81;69.08;99281.27;131268;1251;107379;-79
2023/02/18 00:10:47;;;;;;;8.30;2.00;;;;;;;6.80;68.75;99285.80;131325;1252;107343;-79
2023/02/18 00:13:55;;;;;;;6.60;1.60;;;;;;;6.81;68.60;99288.30;131099;1251;107557;-78
2023/02/18 00:17:00;;;;;;;7.00;2.30;;;;;;;6.83;67.93;99286.16;131141;1254;107512;-79
2023/02/18 00:20:08;;;;;;;7.20;2.60;;;;;;;6.88;67.72;99284.09;131100;1255;108346;-79
2023/02/18 00:23:13;;;;;;;9.60;2.60;;;;;;;6.91;66.72;99296.58;131060;1254;107449;-79
2023/02/18 00:26:20;;;;;;;7.20;2.50;;;;;;;6.95;68.00;99292.83;131020;1251;107381;-78
2023/02/18 00:29:26;;;;;;;7.60;1.80;;;;;;;6.95;68.96;99288.00;131060;1252;108682;-78
2023/02/18 00:32:32;;;;;;;8.10;2.00;;;;;;;6.93;67.96;99286.80;130992;1254;107320;-78
2023/02/18 00:35:39;;;;;;;5.60;2.20;;;;;;;6.92;67.40;99288.45;131032;1251;107528;-77
2023/02/18 00:38:47;;;;;;;6.80;2.10;;;;;;;6.94;68.17;99291.96;131120;1251;107531;-78
2023/02/18 00:41:53;;;;;;;4.90;1.60;;;;;;;6.95;67.97;99282.05;131169;1272;107045;-78
2023/02/18 00:44:58;;;;;;;5.60;1.30;;;;;;;6.97;68.79;99278.10;131085;1251;107243;-78
2023/02/18 00:48:04;;;;;;;5.10;2.10;;;;;;;6.98;68.84;99275.67;131063;1251;107474;-78
2023/02/18 00:51:11;;;;;;;7.90;2.40;;;;;;;6.96;67.26;99291.05;131068;1254;107618;-78
2023/02/18 00:54:16;;;;;;;7.20;2.20;;;;;;;6.96;67.49;99292.34;131335;1254;107543;-78
2023/02/18 00:57:22;;;;;;;6.40;2.70;;;;;;;6.94;67.66;99296.10;131062;1255;107692;-78
2023/02/18 01:00:28;;;;;;;7.10;2.20;;;;;;;6.89;67.55;99299.16;131074;1254;107488;-79
2023/02/18 01:03:34;;;;;;;7.90;2.20;;;;;;;6.88;67.91;99292.80;131032;1257;107440;-78
2023/02/18 01:06:39;;;;;;;8.20;3.00;;;;;;;6.83;68.40;99288.45;131092;1254;107499;-77
2023/02/18 01:09:45;;;;;;;9.60;3.30;;;;;;;6.79;67.53;99288.05;131148;1269;107249;-76
2023/02/18 01:12:52;;;;;;;6.40;1.50;;;;;;;6.74;67.21;99290.23;131361;1252;107550;-76
2023/02/18 01:15:58;;;;;;;6.50;1.80;;;;;;;6.74;68.05;99289.95;131198;1254;107482;-78
2023/02/18 01:19:04;;;;;;;6.50;2.30;;;;;;;6.73;67.48;99290.39;131101;1254;107544;-78
2023/02/18 01:22:09;;;;;;;6.40;1.90;;;;;;;6.73;68.02;99292.54;131239;1253;107566;-78
2023/02/18 01:25:15;;;;;;;6.60;1.70;;;;;;;6.73;67.16;99280.12;131070;1252;107621;-78
2023/02/18 01:28:24;;;;;;;8.50;2.20;;;;;;;6.74;67.22;99282.29;131134;1253;107528;-78
2023/02/18 01:31:29;;;;;;;6.80;1.60;;;;;;;6.74;67.01;99282.52;131136;1251;107560;-78
2023/02/18 01:34:37;;;;;;;7.60;2.00;;;;;;;6.73;66.98;99282.93;131019;1253;107402;-79
2023/02/18 01:37:43;;;;;;;10.60;2.60;;;;;;;6.74;67.22;99282.73;131224;1249;106917;-78
2023/02/18 01:40:51;;;;;;;9.70;2.30;;;;;;;6.69;67.07;99279.39;131016;1254;107587;-78
2023/02/18 01:44:17;;;;;;;9.80;2.40;;;;;;;6.64;66.69;99279.74;131064;1254;107882;-79
2023/02/18 01:47:24;;;;;;;7.60;2.10;;;;;;;6.59;66.86;99280.12;131126;1255;107514;-79
2023/02/18 01:50:31;;;;;;;9.30;2.60;;;;;;;6.56;66.65;99276.67;131095;1254;108683;-77
2023/02/18 01:53:43;;;;;;;10.00;1.70;;;;;;;6.51;67.13;99289.85;131099;1250;107539;-79
2023/02/18 01:56:54;;;;;;;7.80;2.00;;;;;;;6.44;66.56;99287.70;131424;1254;107549;-78
2023/02/18 02:00:11;;;;;;;9.10;2.40;;;;;;;6.40;66.23;99289.41;131067;1250;107616;-78
2023/02/18 02:03:25;;;;;;;7.40;2.00;;;;;;;6.31;65.97;99298.50;131032;1251;107492;-78
2023/02/18 02:06:31;;;;;;;9.60;1.80;;;;;;;6.26;65.90;99303.73;131050;1254;107552;-79
2023/02/18 02:09:39;;;;;;;6.50;1.70;;;;;;;6.20;66.23;99305.20;131053;1255;106258;-77
2023/02/18 02:12:57;;;;;;;6.30;1.60;;;;;;;6.15;66.40;99299.94;130956;1264;107533;-78
2023/02/18 02:16:11;;;;;;;8.60;1.90;;;;;;;6.08;66.56;99298.27;130968;1251;108614;-78
2023/02/18 02:19:29;;;;;;;;;;;;;;;6.05;66.73;99294.56;131081;1251;108698;-79
2023/02/18 02:23:27;;;;;;;8.80;1.60;;;;;;;6.01;66.42;99297.36;131172;1254;107778;-79
2023/02/18 02:26:54;;;;;;;6.00;1.60;;;;;;;5.99;66.32;99292.66;130558;1257;108602;-78
2023/02/18 02:30:27;;;;;;;7.70;1.90;;;;;;;5.95;66.47;99279.02;130822;1256;107360;-76
2023/02/18 02:34:11;;;;;;;6.40;1.80;;;;;;;5.94;66.47;99280.39;131151;1254;107537;-79
2023/02/18 02:37:26;;;;;;;5.80;1.30;;;;;;;5.93;66.90;99283.84;131018;1254;107540;-79
2023/02/18 02:40:38;;;;;;;8.80;1.80;;;;;;;5.89;66.59;99287.81;131107;1264;107471;-78
2023/02/18 02:43:56;;;;;;;6.70;1.50;;;;;;;5.87;66.77;99283.26;131175;1251;107466;-78
2023/02/18 02:47:08;;;;;;;8.00;2.40;;;;;;;5.86;66.68;99294.00;131407;1250;107077;-77
2023/02/18 02:50:18;;;;;;;11.60;4.10;;;;;;;5.83;66.19;99296.55;131375;1251;107471;-76
2023/02/18 02:53:28;;;;;;;8.40;1.90;;;;;;;5.80;66.15;99297.59;131234;1254;108639;-78
2023/02/18 02:56:34;;;;;;;9.10;2.40;;;;;;;5.77;66.46;99291.10;131016;1254;107140;-78
2023/02/18 02:59:43;;;;;;;5.50;1.70;;;;;;;5.75;66.48;99294.65;131115;1254;107536;-79
2023/02/18 03:03:06;;;;;;;8.10;2.00;;;;;;;5.73;66.56;99296.52;131264;1250;107476;-77
2023/02/18 03:06:34;;;;;;;9.20;2.20;;;;;;;5.69;66.27;99300.14;131208;1254;107305;-79
2023/02/18 03:09:53;;;;;;;5.90;1.60;;;;;;;5.68;66.29;99303.27;131008;1268;107344;-78
2023/02/18 03:13:09;;;;;;;6.90;1.90;;;;;;;5.66;65.98;99307.55;131043;1251;107441;-78
2023/02/18 03:16:26;;;;;;;9.10;1.70;;;;;;;5.64;66.50;99317.27;131232;1251;107208;-78
2023/02/18 03:19:38;;;;;;;9.80;2.20;;;;;;;5.62;66.08;99319.89;131144;1254;107633;-77
2023/02/18 03:22:47;;;;;;;6.20;2.00;;;;;;;5.62;66.16;99318.12;131158;1254;107611;-79
2023/02/18 03:25:54;;;;;;;7.50;1.90;;;;;;;5.61;66.22;99327.23;130953;1253;125205;-77
2023/02/18 03:29:02;;;;;;;7.20;1.80;;;;;;;5.60;66.21;99309.29;131301;1250;107662;-78
2023/02/18 03:32:12;;;;;;;5.80;2.10;;;;;;;5.60;66.23;99322.77;131054;1254;107561;-79
2023/02/18 03:35:20;;;;;;;7.20;2.00;;;;;;;5.57;66.33;99326.92;131158;1249;108713;-79
2023/02/18 03:38:30;;;;;;;7.00;1.50;;;;;;;5.54;66.41;99333.84;131110;1250;107434;-78
2023/02/18 03:41:36;;;;;;;7.00;1.50;;;;;;;5.53;66.59;99344.73;131339;1250;107405;-78
2023/02/18 03:44:42;;;;;;;8.50;1.40;;;;;;;5.52;66.54;99348.67;131106;1264;107640;-80
2023/02/18 03:47:47;;;;;;;9.00;1.90;;;;;;;5.51;66.69;99348.09;131077;1249;107566;-79
2023/02/18 03:50:54;;;;;;;14.80;1.80;;;;;;;5.49;66.71;99351.10;131030;1253;107605;-78
2023/02/18 03:53:59;;;;;;;11.10;2.10;;;;;;;5.46;66.36;99349.20;131097;1254;107528;-78
2023/02/18 03:57:05;;;;;;;6.60;1.30;;;;;;;5.44;66.50;99358.27;131020;1254;107351;-78
2023/02/18 04:00:12;;;;;;;6.10;1.70;;;;;;;5.42;66.84;99361.59;131266;1249;107444;-78
2023/02/18 04:03:21;;;;;;;6.40;1.30;;;;;;;5.41;66.81;99367.18;131025;1254;108357;-78
2023/02/18 04:06:26;;;;;;;8.20;1.50;;;;;;;5.40;66.80;99365.73;131025;1263;107237;-78
2023/02/18 04:09:32;;;;;;;6.60;1.60;;;;;;;5.39;67.13;99371.10;131296;1252;107547;-78
2023/02/18 04:12:38;;;;;;;7.30;1.40;;;;;;;5.36;67.01;99369.27;131318;1251;107351;-78
2023/02/18 04:15:43;;;;;;;7.70;1.40;;;;;;;5.34;66.92;99373.52;131266;1263;108674;-79
2023/02/18 04:18:49;;;;;;;7.20;1.80;;;;;;;5.30;66.96;99370.30;131180;1249;107498;-79
2023/02/18 04:21:54;;;;;;;7.00;1.40;;;;;;;5.28;67.11;99370.30;131352;1249;107549;-77
2023/02/18 04:25:00;;;;;;;9.10;1.50;;;;;;;5.27;67.10;99382.95;131344;1252;107276;-78
2023/02/18 04:28:06;;;;;;;10.70;1.80;;;;;;;5.26;67.19;99387.45;131177;1250;107391;-79
2023/02/18 04:31:12;;;;;;;8.90;1.80;;;;;;;5.24;67.44;99397.00;131046;1249;106451;-78
2023/02/18 04:34:18;;;;;;;6.80;1.90;;;;;;;5.20;67.41;99403.54;131317;1251;107478;-78
2023/02/18 04:37:24;;;;;;;7.90;1.40;;;;;;;5.18;67.44;99393.66;131314;1264;107214;-78
2023/02/18 04:40:29;;;;;;;9.90;2.10;;;;;;;5.18;67.51;99402.13;131070;1252;107501;-80
2023/02/18 04:43:35;;;;;;;7.90;1.40;;;;;;;5.17;67.61;99406.74;131277;1250;107520;-79
2023/02/18 04:46:40;;;;;;;7.80;1.80;;;;;;;5.15;67.56;99410.86;131084;1252;106693;-79
2023/02/18 04:49:46;;;;;;;10.20;2.10;;;;;;;5.13;67.76;99408.52;131041;1252;106655;-78
2023/02/18 04:52:51;;;;;;;10.50;1.80;;;;;;;5.13;67.62;99407.00;131029;1250;107465;-78
2023/02/18 04:55:58;;;;;;;6.30;1.30;;;;;;;5.12;67.71;99413.06;131130;1252;107533;-78
2023/02/18 04:59:03;;;;;;;6.80;1.60;;;;;;;5.11;67.61;99403.59;131108;1250;107350;-78
2023/02/18 05:02:09;;;;;;;8.40;1.90;;;;;;;5.11;67.40;99405.01;131017;1251;107720;-78
2023/02/18 05:05:15;;;;;;;9.90;1.90;;;;;;;5.11;67.49;99395.10;130990;1250;107527;-78
2023/02/18 05:08:21;;;;;;;6.50;1.60;;;;;;;5.13;67.33;99382.64;131192;1252;107993;-78
2023/02/18 05:11:27;;;;;;;5.30;1.20;;;;;;;5.14;67.48;99387.86;131061;1254;107551;-77
2023/02/18 05:14:32;;;;;;;5.40;1.60;;;;;;;5.14;67.17;99395.73;131233;1254;107549;-76
2023/02/18 05:17:38;;;;;;;6.90;1.40;;;;;;;5.14;67.36;99398.59;131040;1251;107477;-77
2023/02/18 05:20:45;;;;;;;8.00;1.60;;;;;;;5.15;67.43;99402.34;131076;1249;107263;-82
2023/02/18 05:23:50;;;;;;;9.10;1.90;;;;;;;5.17;67.66;99417.70;131128;1265;107557;-82
2023/02/18 05:26:56;;;;;;;3.90;1.60;;;;;;;5.19;67.69;99412.09;131107;1254;107551;-81
2023/02/18 05:30:01;;;;;;;8.50;2.80;;;;;;;5.20;67.66;99404.72;131118;1253;107969;-81
2023/02/18 05:33:07;;;;;;;6.90;1.90;;;;;;;5.19;67.89;99401.09;131197;1272;107265;-81
2023/02/18 05:36:12;;;;;;;6.50;1.70;;;;;;;5.16;67.77;99386.05;131358;1264;109297;-82
2023/02/18 05:39:18;;;;;;;5.30;1.90;;;;;;;5.15;67.80;99381.58;131191;1250;107664;-81
2023/02/18 05:42:23;;;;;;;8.60;1.60;;;;;;;5.12;67.86;99388.18;131068;1249;107536;-81
2023/02/18 05:45:29;;;;;;;18.50;9.60;;;;;;;5.09;67.93;99369.05;131078;1254;107592;-80
2023/02/18 05:48:34;;;;;;;43.50;15.30;;;;;;;5.06;68.05;99376.71;131078;1249;107261;-81
2023/02/18 05:51:40;;;;;;;34.10;17.20;;;;;;;5.05;68.06;99402.73;131279;1252;106126;-80
2023/02/18 05:54:46;;;;;;;18.20;8.10;;;;;;;5.08;68.47;99407.41;131198;1250;107501;-81
2023/02/18 05:57:51;;;;;;;20.30;8.80;;;;;;;5.14;68.07;99404.55;131401;1249;107521;-80
2023/02/18 06:00:57;;;;;;;10.20;3.80;;;;;;;5.21;67.98;99406.02;131536;1249;107656;-80
2023/02/18 06:04:02;;;;;;;32.80;8.30;;;;;;;5.24;67.86;99414.59;131377;1252;106105;-79
2023/02/18 06:07:08;;;;;;;11.30;3.10;;;;;;;5.24;67.52;99419.33;131149;1251;107488;-81
2023/02/18 06:10:14;;;;;;;8.40;2.20;;;;;;;5.25;67.83;99434.46;131191;1250;107400;-80
2023/02/18 06:13:19;;;;;;;21.20;10.40;;;;;;;5.24;67.72;99430.10;131317;1250;107507;-79
2023/02/18 06:16:25;;;;;;;21.50;11.20;;;;;;;5.23;67.60;99438.33;131430;1253;107392;-79
2023/02/18 06:19:31;;;;;;;12.00;4.70;;;;;;;5.23;67.99;99450.14;131376;1249;107438;-79
2023/02/18 06:22:36;;;;;;;8.50;2.70;;;;;;;5.25;67.93;99447.45;131279;1251;107956;-79
2023/02/18 06:25:42;;;;;;;7.10;2.40;;;;;;;5.25;67.49;99436.89;131183;1254;106496;-78
2023/02/18 06:28:48;;;;;;;50.40;24.40;;;;;;;5.25;67.81;99447.14;131052;1249;107580;-80
2023/02/18 06:31:53;;;;;;;38.70;18.90;;;;;;;5.25;67.75;99437.41;131321;1251;106399;-79
2023/02/18 06:34:59;;;;;;;14.00;5.20;;;;;;;5.25;67.87;99441.71;131337;1254;106801;-80
2023/02/18 06:38:04;;;;;;;9.00;3.00;;;;;;;5.24;67.65;99440.48;131133;1252;107520;-81
2023/02/18 06:41:11;;;;;;;9.80;4.50;;;;;;;5.25;67.87;99449.28;131208;1252;107518;-79
2023/02/18 06:44:16;;;;;;;16.80;5.10;;;;;;;5.27;68.08;99457.56;131256;1250;107555;-79
2023/02/18 06:47:22;;;;;;;11.50;4.50;;;;;;;5.28;67.61;99453.19;131567;1252;107393;-81
2023/02/18 06:50:28;;;;;;;10.10;4.20;;;;;;;5.31;67.63;99468.27;131682;1250;108081;-80
2023/02/18 06:53:34;;;;;;;12.90;4.20;;;;;;;5.33;67.18;99479.91;131625;1250;107394;-80
2023/02/18 06:56:39;;;;;;;9.90;3.50;;;;;;;5.35;67.51;99470.59;131513;1252;107531;-80
2023/02/18 06:59:46;;;;;;;11.60;4.30;;;;;;;5.37;67.50;99480.03;131511;1254;109264;-81
2023/02/18 07:02:52;;;;;;;11.30;3.40;;;;;;;5.41;67.31;99484.14;131468;1250;107551;-81
2023/02/18 07:05:57;;;;;;;11.00;2.80;;;;;;;5.47;66.96;99495.02;131435;1272;107399;-81
2023/02/18 07:09:03;;;;;;;10.00;3.40;;;;;;;5.54;67.26;99501.98;131325;1250;107565;-78
2023/02/18 07:12:08;;;;;;;10.30;3.70;;;;;;;5.66;67.49;99499.19;131122;1251;107994;-79
2023/02/18 07:15:14;;;;;;;10.70;4.10;;;;;;;5.76;67.06;99502.44;131311;1250;107431;-81
2023/02/18 07:18:20;;;;;;;11.20;4.30;;;;;;;5.84;67.08;99503.11;131098;1249;107415;-82
2023/02/18 07:21:25;;;;;;;10.30;3.30;;;;;;;5.92;66.72;99502.98;131252;1250;107563;-79
2023/02/18 07:24:31;;;;;;;9.10;3.00;;;;;;;5.99;67.05;99502.00;131135;1255;109277;-80
2023/02/18 07:27:36;;;;;;;12.30;3.60;;;;;;;5.97;66.33;99502.69;131180;1249;107224;-79
2023/02/18 07:30:42;;;;;;;6.40;2.50;;;;;;;5.94;66.58;99511.63;131167;1250;107443;-78
2023/02/18 07:33:48;;;;;;;11.40;3.20;;;;;;;5.90;66.82;99507.89;131071;1254;107575;-79
2023/02/18 07:36:53;;;;;;;16.30;4.60;;;;;;;5.90;67.05;99503.63;131208;1272;107515;-79
2023/02/18 07:39:59;;;;;;;30.70;14.40;;;;;;;5.95;66.84;99508.15;131146;1252;107532;-79
2023/02/18 07:43:04;;;;;;;13.80;5.00;;;;;;;5.99;66.59;99500.24;131200;1253;107576;-79
2023/02/18 07:46:10;;;;;;;8.50;2.90;;;;;;;6.00;66.77;99501.38;131153;1252;107567;-78
2023/02/18 07:49:16;;;;;;;8.90;2.80;;;;;;;6.03;66.47;99504.95;131340;1253;106739;-78
2023/02/18 07:52:22;;;;;;;9.30;2.80;;;;;;;6.07;66.21;99502.96;131455;1250;107394;-80
2023/02/18 07:55:47;;;;;;;175.20;60.00;;;;;;;6.07;65.87;99507.22;131431;1251;107363;-81
2023/02/18 07:58:53;;;;;;;14.60;4.20;;;;;;;6.13;65.91;99499.77;131404;1249;107922;-84
2023/02/18 08:01:59;;;;;;;9.40;3.50;;;;;;;6.20;65.56;99504.57;131471;1252;107550;-77
2023/02/18 08:05:05;;;;;;;8.60;3.30;;;;;;;6.34;65.45;99504.59;131077;1252;106871;-79
2023/02/18 08:08:12;;;;;;;10.40;2.70;;;;;;;6.43;64.64;99513.80;131308;1252;105645;-79
2023/02/18 08:11:18;;;;;;;9.60;2.40;;;;;;;6.47;65.32;99502.23;131605;1250;107379;-77
2023/02/18 08:14:23;;;;;;;9.50;4.10;;;;;;;6.54;64.69;99504.23;131761;1250;107625;-80
2023/02/18 08:17:29;;;;;;;9.30;3.10;;;;;;;6.66;64.59;99505.75;132026;1255;107229;-78
2023/02/18 08:20:37;;;;;;;38.00;17.40;;;;;;;6.77;63.79;99497.20;131275;1252;107477;-78
2023/02/18 08:23:43;;;;;;;14.50;4.20;;;;;;;6.76;63.26;99509.59;131906;1249;107529;-85
2023/02/18 08:26:48;;;;;;;13.70;5.70;;;;;;;6.71;63.14;99501.73;131199;1249;107526;-80
2023/02/18 08:29:54;;;;;;;10.40;2.20;;;;;;;6.79;64.86;99495.92;131110;1254;107561;-77
2023/02/18 08:33:00;;;;;;;9.30;2.30;;;;;;;6.80;63.19;99505.13;131127;1253;107352;-79
2023/02/18 08:36:09;;;;;;;13.50;3.20;;;;;;;6.77;63.53;99491.90;131245;1253;108530;-81
2023/02/18 08:39:15;;;;;;;10.30;2.20;;;;;;;6.77;63.91;99482.62;131319;1252;107618;-80
2023/02/18 08:42:21;;;;;;;12.70;2.90;;;;;;;6.77;63.28;99488.82;131445;1252;108489;-80
2023/02/18 08:45:26;;;;;;;11.50;3.10;;;;;;;6.83;63.07;99498.80;131192;1265;107626;-80
2023/02/18 08:48:32;;;;;;;14.00;4.00;;;;;;;6.96;63.31;99499.57;131164;1250;107310;-81
2023/02/18 08:51:38;;;;;;;9.40;2.50;;;;;;;7.02;61.85;99497.00;131178;1250;107365;-80
2023/02/18 08:54:43;;;;;;;22.60;9.30;;;;;;;7.00;62.43;99487.88;131223;1264;107240;-80
2023/02/18 08:57:49;;;;;;;8.90;2.00;;;;;;;7.12;62.25;99501.16;131233;1249;107351;-80
2023/02/18 09:00:55;;;;;;;12.50;3.40;;;;;;;7.15;61.48;99497.60;131367;1250;107381;-80
2023/02/18 09:04:00;;;;;;;15.10;3.50;;;;;;;7.19;61.93;99500.69;131302;1250;108339;-80
2023/02/18 09:07:06;;;;;;;14.20;3.40;;;;;;;7.22;61.62;99507.62;131156;1252;107250;-80
2023/02/18 09:10:12;;;;;;;7.50;2.20;;;;;;;7.28;62.41;99507.91;131174;1252;107513;-79
2023/02/18 09:13:17;;;;;;;9.80;2.40;;;;;;;7.29;61.90;99508.58;131164;1252;107878;-79
2023/02/18 09:16:23;;;;;;;13.00;2.90;;;;;;;7.29;61.65;99513.52;131197;1252;107426;-80
2023/02/18 09:19:29;;;;;;;13.30;3.60;;;;;;;7.32;61.56;99516.01;131311;1252;107559;-80
2023/02/18 09:22:35;;;;;;;9.90;2.50;;;;;;;7.35;61.49;99513.42;131180;1255;107509;-80
2023/02/18 09:25:42;;;;;;;12.80;2.70;;;;;;;7.44;62.26;99504.91;131297;1253;107395;-79
2023/02/18 09:28:48;;;;;;;6.80;2.60;;;;;;;7.48;60.84;99518.36;131344;1253;108583;-78
2023/02/18 09:31:53;;;;;;;13.80;2.90;;;;;;;7.45;62.17;99507.88;131324;1249;107413;-78
2023/02/18 09:34:59;;;;;;;13.50;3.00;;;;;;;7.55;62.46;99513.09;131303;1254;108240;-79
2023/02/18 09:38:05;;;;;;;12.10;3.10;;;;;;;7.60;62.11;99518.92;131248;1250;107361;-80
2023/02/18 09:41:21;;;;;;;18.00;6.30;;;;;;;7.51;62.02;99524.44;131270;1250;107269;-79
2023/02/18 09:44:33;;;;;;;20.60;8.00;;;;;;;7.52;62.48;99539.80;131189;1253;107467;-79
2023/02/18 09:47:42;;;;;;;19.80;7.10;;;;;;;7.53;62.83;99539.15;131202;1249;107420;-80
2023/02/18 09:50:52;;;;;;;20.50;7.30;;;;;;;7.56;61.98;99540.27;131243;1254;106697;-79
2023/02/18 09:53:58;;;;;;;20.30;7.90;;;;;;;7.54;61.71;99542.05;131233;1249;107599;-79
2023/02/18 09:57:06;;;;;;;32.40;13.70;;;;;;;7.51;62.31;99548.86;131196;1250;107376;-79
2023/02/18 10:00:18;;;;;;;50.30;21.00;;;;;;;7.52;61.57;99556.37;131065;1255;107973;-81
2023/02/18 10:03:27;;;;;;;28.40;12.50;;;;;;;7.45;61.25;99548.00;131241;1255;107453;-79
2023/02/18 10:06:35;;;;;;;39.70;19.90;;;;;;;7.48;62.05;99545.73;131183;1254;107614;-79
2023/02/18 10:09:41;;;;;;;30.80;13.50;;;;;;;7.56;61.67;99548.06;131140;1250;108334;-79
2023/02/18 10:12:47;;;;;;;17.60;5.50;;;;;;;7.58;61.64;99551.21;131139;1255;106540;-80
2023/02/18 10:15:53;;;;;;;48.00;22.50;;;;;;;7.56;61.52;99562.77;131212;1265;107683;-79
2023/02/18 10:19:00;;;;;;;43.10;18.40;;;;;;;7.56;61.59;99550.86;131128;1252;107435;-79
2023/02/18 10:22:10;;;;;;;17.40;6.80;;;;;;;7.59;61.55;99567.59;131127;1252;107621;-81
2023/02/18 10:25:21;;;;;;;13.30;5.90;;;;;;;7.55;61.81;99554.73;131305;1254;107521;-80
2023/02/18 10:28:28;;;;;;;11.40;3.70;;;;;;;7.51;61.90;99556.46;131192;1250;107167;-80
2023/02/18 10:31:36;;;;;;;15.40;6.60;;;;;;;7.45;61.48;99560.60;131227;1254;107543;-80
2023/02/18 10:34:48;;;;;;;30.30;14.50;;;;;;;7.40;60.99;99551.48;131150;1256;107539;-80
2023/02/18 10:38:04;;;;;;;40.60;21.10;;;;;;;7.34;61.09;99564.33;131249;1249;107256;-80
2023/02/18 10:41:20;;;;;;;14.50;5.20;;;;;;;7.30;61.29;99542.43;131130;1252;107434;-80
2023/02/18 10:44:37;;;;;;;23.70;11.40;;;;;;;7.28;61.73;99541.73;131132;1250;107520;-80
2023/02/18 10:47:53;;;;;;;36.90;18.80;;;;;;;7.33;61.47;99540.93;131184;1255;107451;-80
2023/02/18 10:51:03;;;;;;;53.70;30.90;;;;;;;7.33;61.24;99537.83;131225;1250;107417;-80
2023/02/18 10:54:08;;;;;;;12.70;5.70;;;;;;;7.40;61.33;99540.75;131458;1252;107484;-80
2023/02/18 10:57:19;;;;;;;11.30;4.90;;;;;;;7.38;60.81;99541.23;131214;1249;107214;-80
2023/02/18 11:00:27;;;;;;;10.40;3.20;;;;;;;7.41;60.97;99544.67;131339;1252;106525;-79
2023/02/18 11:03:44;;;;;;;9.40;2.60;;;;;;;7.36;60.67;99542.06;131376;1255;107624;-79
2023/02/18 11:06:52;;;;;;;11.80;3.20;;;;;;;7.37;60.97;99541.08;131249;1250;106446;-80
2023/02/18 11:10:00;;;;;;;8.00;2.70;;;;;;;7.40;61.37;99538.02;131166;1250;106503;-79
2023/02/18 11:13:09;;;;;;;12.50;4.00;;;;;;;7.44;60.80;99534.19;131384;1250;107545;-81
2023/02/18 11:16:14;;;;;;;31.80;11.90;;;;;;;7.41;60.48;99531.94;131319;1249;107249;-79
2023/02/18 11:19:40;;;;;;;14.20;5.90;;;;;;;7.35;60.23;99538.03;131366;1252;107434;-80
2023/02/18 11:22:46;;;;;;;12.80;3.50;;;;;;;7.34;61.02;99538.45;131312;1249;106666;-80
2023/02/18 11:25:59;;;;;;;11.80;2.60;;;;;;;7.36;60.52;99535.30;131146;1249;107484;-79
2023/02/18 11:29:09;;;;;;;9.50;2.80;;;;;;;7.35;60.71;99519.85;131185;1254;107433;-79
2023/02/18 11:32:14;;;;;;;8.50;3.50;;;;;;;7.36;60.56;99520.41;131145;1250;107461;-80
2023/02/18 11:35:22;;;;;;;14.20;3.70;;;;;;;7.39;60.19;99519.20;131156;1250;107515;-80
2023/02/18 11:38:35;;;;;;;11.00;5.70;;;;;;;7.39;60.57;99531.80;131271;1250;107438;-80
2023/02/18 11:41:44;;;;;;;10.80;3.70;;;;;;;7.48;60.84;99532.53;131455;1249;107501;-80
2023/02/18 11:44:54;;;;;;;11.30;4.10;;;;;;;7.53;60.89;99531.73;131341;1250;108600;-81
2023/02/18 11:48:14;;;;;;;18.90;9.20;;;;;;;7.51;59.94;99527.84;131148;1250;107492;-80
2023/02/18 11:51:23;;;;;;;31.70;16.50;;;;;;;7.37;59.59;99519.58;131373;1254;106725;-80
2023/02/18 11:54:30;;;;;;;23.40;11.20;;;;;;;7.33;60.53;99513.83;131145;1252;109163;-80
2023/02/18 11:57:39;;;;;;;20.70;9.80;;;;;;;7.39;60.04;99510.44;131351;1250;107543;-80
2023/02/18 12:00:47;;;;;;;41.90;26.50;;;;;;;7.45;60.81;99499.88;131471;1252;107516;-81
2023/02/18 12:03:58;;;;;;;13.30;5.50;;;;;;;7.57;60.13;99494.66;131461;1252;107582;-78
2023/02/18 12:07:13;;;;;;;51.40;27.60;;;;;;;7.53;59.86;99491.54;131514;1254;107552;-79
2023/02/18 12:10:27;;;;;;;55.00;38.50;;;;;;;7.55;60.64;99484.02;131292;1250;107357;-80
2023/02/18 12:13:36;;;;;;;12.40;5.90;;;;;;;7.68;60.65;99478.29;131021;1255;107524;-79
2023/02/18 12:16:54;;;;;;;11.20;6.20;;;;;;;7.74;60.08;99476.11;131037;1254;105539;-79
2023/02/18 12:20:27;;;;;;;43.60;27.20;;;;;;;7.77;60.04;99473.21;131125;1253;107524;-79
2023/02/18 12:23:42;;;;;;;93.00;41.90;;;;;;;7.85;60.01;99470.38;131303;1252;107524;-80
2023/02/18 12:27:01;;;;;;;116.60;47.60;;;;;;;7.94;59.89;99458.53;131291;1252;107519;-76
2023/02/18 12:30:52;;;;;;;24.90;9.60;;;;;;;8.07;60.18;99451.57;131594;1250;107296;-76
2023/02/18 12:34:11;;;;;;;146.00;61.40;;;;;;;8.13;59.52;99451.27;131471;1253;107532;-76
2023/02/18 12:37:40;;;;;;;211.90;84.00;;;;;;;8.16;59.48;99443.24;131116;1252;108633;-75
2023/02/18 12:41:05;;;;;;;21.20;7.60;;;;;;;8.19;59.36;99439.73;131028;1256;107486;-75
2023/02/18 12:44:32;;;;;;;17.00;6.90;;;;;;;8.17;59.20;99435.98;130986;1255;107577;-74
2023/02/18 12:48:01;;;;;;;24.00;6.80;;;;;;;8.17;58.91;99430.90;131047;1256;107547;-74
2023/02/18 12:51:19;;;;;;;9.80;2.70;;;;;;;8.13;59.15;99439.29;130962;1254;107548;-76
2023/02/18 12:54:37;;;;;;;7.80;2.80;;;;;;;8.04;59.35;99441.20;130965;1255;107498;-75
2023/02/18 12:57:48;;;;;;;5.90;2.10;;;;;;;7.89;58.19;99444.52;131102;1253;108584;-74
2023/02/18 13:01:08;;;;;;;12.30;4.60;;;;;;;7.77;59.33;99432.95;131254;1255;107506;-75
2023/02/18 13:04:36;;;;;;;26.10;15.70;;;;;;;7.79;60.03;99424.42;131096;1255;108670;-74
2023/02/18 13:07:53;;;;;;;14.50;5.80;;;;;;;7.84;60.09;99425.52;131027;1260;107378;-75
2023/02/18 13:11:15;;;;;;;27.70;15.10;;;;;;;7.78;59.86;99417.42;131207;1252;107429;-75
2023/02/18 13:14:24;;;;;;;68.10;39.60;;;;;;;7.79;59.46;99412.80;131073;1249;107411;-76
2023/02/18 13:17:35;;;;;;;70.00;41.60;;;;;;;7.79;59.83;99410.67;131497;1250;107210;-76
2023/02/18 13:20:43;;;;;;;13.50;6.40;;;;;;;7.83;59.54;99411.44;131316;1250;107343;-76
2023/02/18 13:23:55;;;;;;;89.80;53.00;;;;;;;7.83;60.34;99408.98;131142;1252;107410;-76
2023/02/18 13:27:14;;;;;;;55.40;31.20;;;;;;;7.90;60.28;99406.36;131118;1255;107458;-76
2023/02/18 13:30:28;;;;;;;38.30;22.50;;;;;;;7.95;60.02;99404.77;131346;1256;109714;-75
2023/02/18 13:33:44;;;;;;;19.60;9.10;;;;;;;7.97;60.12;99411.45;131296;1251;107413;-73
2023/02/18 13:37:03;;;;;;;12.00;5.70;;;;;;;7.96;60.06;99407.57;131291;1252;107510;-76
2023/02/18 13:40:18;;;;;;;12.50;4.60;;;;;;;7.97;60.13;99403.19;131155;1253;107611;-79
2023/02/18 13:43:32;;;;;;;38.40;23.10;;;;;;;8.01;60.30;99401.88;131208;1249;107578;-78
2023/02/18 13:46:50;;;;;;;16.30;6.80;;;;;;;8.02;59.83;99406.93;131389;1254;107571;-78
2023/02/18 13:49:56;;;;;;;26.00;12.70;;;;;;;7.97;59.93;99407.48;131251;1253;108692;-77
2023/02/18 13:53:23;;;;;;;18.60;11.40;;;;;;;7.95;59.89;99404.61;131075;1272;107347;-77
2023/02/18 13:56:33;;;;;;;11.60;5.50;;;;;;;7.94;59.86;99394.08;131282;1255;107500;-76
2023/02/18 13:59:44;;;;;;;23.30;13.40;;;;;;;7.90;59.77;99384.23;131280;1255;106687;-80
2023/02/18 14:03:02;;;;;;;17.00;8.00;;;;;;;7.88;59.76;99378.63;131262;1254;107545;-78
2023/02/18 14:06:19;;;;;;;12.00;4.90;;;;;;;7.91;60.16;99372.07;131100;1255;107933;-78
2023/02/18 14:09:40;;;;;;;10.00;4.50;;;;;;;7.92;59.90;99372.85;131282;1255;107494;-74
2023/02/18 14:13:18;;;;;;;9.40;4.00;;;;;;;7.91;60.18;99363.21;131078;1254;107609;-73
2023/02/18 14:16:24;;;;;;;8.40;4.10;;;;;;;7.91;60.33;99354.97;131218;1255;107561;-72
2023/02/18 14:19:30;;;;;;;11.90;5.80;;;;;;;7.89;59.35;99347.20;131147;1250;107374;-72
2023/02/18 14:22:47;;;;;;;27.20;14.70;;;;;;;7.84;60.20;99338.44;131143;1256;106691;-72
2023/02/18 14:25:57;;;;;;;50.70;29.00;;;;;;;7.83;60.20;99327.51;131240;1252;107480;-74
2023/02/18 14:29:08;;;;;;;93.90;54.80;;;;;;;7.85;60.28;99317.11;131332;1250;106541;-72
2023/02/18 14:32:17;;;;;;;49.50;29.00;;;;;;;7.84;60.45;99313.59;131296;1255;107628;-72
2023/02/18 14:35:34;;;;;;;31.00;20.40;;;;;;;7.85;60.60;99308.20;131182;1255;107518;-75